M I D A S
Marine Information and Data Acquisition System
Tripno 908 of the Zeeleeuw from 2005-06-02 09:22:34 to 2005-06-02 13:49:12
Back to CruiseResearch ActivitiesStationsMapUnderway DataData graphs

EquipmentUnitsComment
TimeDGPSUTC
LatitudeDGPSDM.mWGS84
LongitudeDGPSDM.mWGS84
TemperatureSBE03/SBE38deg celciusITS90
ConductivitySBE21S/mITS90
SalinitySBE21 Practical Salinity Units
ChlorophylAChelsea fluorimeterg/lCalibrated in Aceton
Missing or incorrect values are displayed as -999
Sea surface data collected by the RV Zeeleeuw from 2005-06-02 06:40:46 to 2005-06-02 13:50:30
Time Latitude Longitude Temperature Conductivity Salinity ChlorophylA
2005-06-02 06:41:51 51°13.597 2°56.109 21.1929 4.430961 31.095859 -0.882377
2005-06-02 06:42:51 51°13.597 2°56.108 21.1923 4.43075 31.096214 -0.882377
2005-06-02 06:43:51 51°13.598 2°56.108 21.1976 4.430539 31.096568 -0.882377
2005-06-02 06:44:51 51°13.599 2°56.108 21.1674 4.430223 31.095593 -0.848668
2005-06-02 06:45:51 51°13.599 2°56.108 21.1901 4.429907 31.095623 -0.882377
2005-06-02 06:46:50 51°13.599 2°56.109 21.1898 4.429696 31.095977 -0.848668
2005-06-02 06:47:50 51°13.599 2°56.109 21.2068 4.429379 31.095505 -0.882377
2005-06-02 06:48:51 51°13.599 2°56.108 21.2039 4.429063 31.095032 -0.882377
2005-06-02 06:49:50 51°13.599 2°56.108 21.2139 4.428852 31.095387 -0.882377
2005-06-02 06:50:51 51°13.599 2°56.108 21.2287 4.428641 31.096746 -0.882377
2005-06-02 06:51:50 51°13.598 2°56.108 21.2389 4.428219 31.094944 -0.882377
2005-06-02 06:52:51 51°13.599 2°56.108 21.2367 4.428114 31.096629 -0.916087
2005-06-02 06:53:50 51°13.599 2°56.108 21.2527 4.427692 31.095329 -0.916087
2005-06-02 06:54:50 51°13.599 2°56.108 21.2621 4.427481 31.096187 -0.882377
2005-06-02 06:55:50 51°13.599 2°56.108 21.2698 4.427165 31.096217 -0.882377
2005-06-02 06:56:50 51°13.599 2°56.108 21.2765 4.426954 31.096572 -0.882377
2005-06-02 06:57:50 51°13.599 2°56.107 21.2845 4.426532 31.095272 -0.882377
2005-06-02 06:58:50 51°13.599 2°56.108 21.2939 4.426321 31.095627 -0.882377
2005-06-02 06:59:50 51°13.598 2°56.108 21.301 4.4259 31.09483 -0.882377
2005-06-02 07:00:50 51°13.598 2°56.108 21.3113 4.425689 31.089657 -0.882377
2005-06-02 07:01:50 51°13.598 2°56.108 21.3131 4.425478 31.089509 -0.916087
2005-06-02 07:02:50 51°13.598 2°56.108 21.321 4.425056 31.091225 -0.882377
2005-06-02 07:03:50 51°13.598 2°56.108 21.3152 4.424951 31.093916 -0.916087
2005-06-02 07:04:51 51°13.599 2°56.108 21.3354 4.424634 31.093947 -0.882377
2005-06-02 07:05:51 51°13.599 2°56.108 21.3417 4.424318 31.093977 -0.916087
2005-06-02 07:06:51 51°13.6 2°56.108 21.343 4.424001 31.093505 -0.916087
2005-06-02 07:07:51 51°13.6 2°56.108 21.3553 4.423791 31.093358 -0.882377
2005-06-02 07:08:51 51°13.6 2°56.109 21.3609 4.423474 31.093389 -0.916087
2005-06-02 07:09:50 51°13.599 2°56.109 21.3712 4.423158 31.092916 -0.882377
2005-06-02 07:10:51 51°13.599 2°56.109 21.3805 4.423052 31.0941 -0.882377
2005-06-02 07:11:51 51°13.599 2°56.109 21.3882 4.422631 31.093303 -0.882377
2005-06-02 07:12:51 51°13.599 2°56.108 21.3932 4.42242 31.093659 -0.916087
2005-06-02 07:13:51 51°13.599 2°56.108 21.4103 4.422103 31.093187 -0.882377
2005-06-02 07:14:50 51°13.599 2°56.107 21.4215 4.421893 31.093543 -0.882377
2005-06-02 07:15:50 51°13.599 2°56.108 21.4337 4.421576 31.093071 -0.916087
2005-06-02 07:16:51 51°13.599 2°56.108 21.4414 4.42126 31.093103 -0.882377
2005-06-02 07:17:51 51°13.599 2°56.107 21.4497 4.420944 31.093134 -0.882377
2005-06-02 07:18:51 51°13.599 2°56.107 21.4552 4.420838 31.094319 -0.882377
2005-06-02 07:19:51 51°13.599 2°56.108 21.4708 4.420416 31.093018 -0.882377
2005-06-02 07:20:51 51°13.599 2°56.108 21.4713 4.420311 31.0937 -0.882377
2005-06-02 07:21:51 51°13.599 2°56.108 21.4949 4.419889 31.092903 -0.882377
2005-06-02 07:22:51 51°13.599 2°56.108 21.5005 4.419573 31.092431 -0.882377
2005-06-02 07:23:51 51°13.599 2°56.108 21.5138 4.419362 31.092788 -0.882377
2005-06-02 07:24:51 51°13.599 2°56.109 21.5241 4.419046 31.093323 -0.882377
2005-06-02 07:25:50 51°13.599 2°56.109 21.5266 4.418729 31.092348 -0.916087
2005-06-02 07:26:51 51°13.598 2°56.109 21.5351 4.418413 31.091876 -0.882377
2005-06-02 07:27:51 51°13.599 2°56.109 21.5546 4.418202 31.092736 -0.882377
2005-06-02 07:28:51 51°13.598 2°56.108 21.5559 4.417991 31.093094 -0.882377
2005-06-02 07:29:51 51°13.599 2°56.108 21.525 4.417464 31.091467 -0.882377
2005-06-02 07:30:51 51°13.598 2°56.108 21.5693 4.417358 31.092654 -0.882377
2005-06-02 07:31:51 51°13.598 2°56.108 21.5912 4.417042 31.092686 -0.882377
2005-06-02 07:32:51 51°13.598 2°56.107 21.6111 4.41662 31.092897 -0.916087
2005-06-02 07:33:51 51°13.598 2°56.108 21.6151 4.416304 31.092929 -0.916087
2005-06-02 07:34:50 51°13.598 2°56.108 21.6338 4.415882 31.092132 -0.882377
2005-06-02 07:35:50 51°13.598 2°56.107 21.6405 4.415671 31.092994 -0.882377
2005-06-02 07:36:51 51°13.598 2°56.107 21.65 4.415249 31.092701 -0.882377
2005-06-02 07:37:51 51°13.598 2°56.108 21.6586 4.414828 31.091904 -0.882377
2005-06-02 07:38:51 51°13.599 2°56.108 21.6662 4.414406 31.092116 -0.882377
2005-06-02 07:39:50 51°13.601 2°56.109 21.6737 4.41409 31.092653 -0.882377
2005-06-02 07:40:48 51°13.598 2°56.107 21.6835 4.413562 31.091531 -0.916087
2005-06-02 07:41:49 51°13.597 2°56.106 21.6892 4.41314 31.090734 -0.916087
2005-06-02 07:42:49 51°13.597 2°56.106 21.7107 4.412719 31.090946 -0.916087
2005-06-02 07:43:49 51°13.596 2°56.106 21.7173 4.412297 31.090654 -0.882377
2005-06-02 07:44:49 51°13.597 2°56.106 21.7192 4.411981 31.091191 -0.916087
2005-06-02 07:45:49 51°13.597 2°56.107 21.7285 4.411559 31.090899 -0.916087
2005-06-02 07:46:49 51°13.598 2°56.107 21.7497 4.411032 31.089777 -0.882377
2005-06-02 07:47:49 51°13.598 2°56.108 21.7627 4.410821 31.09064 -0.882377
2005-06-02 07:48:49 51°13.599 2°56.109 21.7649 4.410399 31.090348 -0.882377
2005-06-02 07:49:49 51°13.599 2°56.109 21.7708 4.409977 31.089551 -0.882377
2005-06-02 07:50:49 51°13.598 2°56.109 21.7968 4.40945 31.088934 -0.882377
2005-06-02 07:51:48 51°13.599 2°56.109 21.813 4.409239 31.090303 -0.882377
2005-06-02 07:52:49 51°13.599 2°56.108 21.8122 4.408817 31.090011 -0.882377
2005-06-02 07:53:49 51°13.599 2°56.109 21.8263 4.408395 31.08972 -0.882377
2005-06-02 07:54:49 51°13.599 2°56.109 21.8387 4.407974 31.089428 -0.916087
2005-06-02 07:55:49 51°13.598 2°56.11 21.8462 4.407552 31.089136 -0.882377
2005-06-02 07:56:49 51°13.599 2°56.11 21.8563 4.407236 31.089676 -0.882377
2005-06-02 07:57:49 51°13.598 2°56.108 21.8692 4.406814 31.089384 -0.882377
2005-06-02 07:58:49 51°13.598 2°56.107 21.8838 4.406392 31.089093 -0.882377
2005-06-02 07:59:49 51°13.598 2°56.108 21.9015 4.40597 31.088802 -0.882377
2005-06-02 08:00:49 51°13.598 2°56.108 21.9074 4.405548 31.08851 -0.882377
2005-06-02 08:01:49 51°13.598 2°56.109 21.9175 4.405127 31.088219 -0.882377
2005-06-02 08:02:49 51°13.597 2°56.108 21.9288 4.40481 31.088254 -0.916087
2005-06-02 08:03:49 51°13.597 2°56.108 21.9448 4.404283 31.087131 -0.882377
2005-06-02 08:04:49 51°13.598 2°56.11 21.946 4.403967 31.087671 -0.882377
2005-06-02 08:05:49 51°13.598 2°56.108 21.953 4.40365 31.088212 -0.882377
2005-06-02 08:06:49 51°13.598 2°56.108 21.9604 4.403229 31.088427 -0.916087
2005-06-02 08:07:49 51°13.597 2°56.108 21.9711 4.402912 31.08745 -0.882377
2005-06-02 08:08:49 51°13.598 2°56.108 21.9833 4.402596 31.087485 -0.916087
2005-06-02 08:09:49 51°13.597 2°56.108 22.0005 4.402069 31.086362 -0.882377
2005-06-02 08:10:49 51°13.598 2°56.108 22.0045 4.401752 31.086397 -0.882377
2005-06-02 08:11:49 51°13.597 2°56.108 22.0174 4.401436 31.086939 -0.882377
2005-06-02 08:12:49 51°13.598 2°56.108 22.018 4.40112 31.086974 -0.916087
2005-06-02 08:13:49 51°13.598 2°56.108 22.0336 4.400698 31.086177 -0.882377
2005-06-02 08:14:49 51°13.598 2°56.108 22.0426 4.400382 31.086212 -0.882377
2005-06-02 08:15:49 51°13.599 2°56.108 22.0584 4.39996 31.086428 -0.916087
2005-06-02 08:16:49 51°13.599 2°56.109 22.0643 4.399643 31.086464 -0.848668
2005-06-02 08:17:49 51°13.598 2°56.108 22.0717 4.399327 31.087006 -0.882377
2005-06-02 08:18:49 51°13.598 2°56.107 22.0782 4.398905 31.086716 -0.916087
2005-06-02 08:19:49 51°13.597 2°56.107 22.0974 4.398484 31.086426 -0.882377
2005-06-02 08:20:49 51°13.598 2°56.107 22.1129 4.398167 31.086968 -0.882377
2005-06-02 08:21:49 51°13.598 2°56.108 22.1148 4.39764 31.085846 -0.882377
2005-06-02 08:22:49 51°13.598 2°56.108 22.1339 4.397324 31.086895 -0.916087
2005-06-02 08:23:49 51°13.598 2°56.107 22.1406 4.396902 31.086605 -0.882377
2005-06-02 08:24:49 51°13.598 2°56.107 22.1564 4.396586 31.087148 -0.882377
2005-06-02 08:25:49 51°13.598 2°56.107 22.1511 4.396058 31.085519 -0.882377
2005-06-02 08:26:49 51°13.597 2°56.107 22.1729 4.395531 31.084903 -0.916087
2005-06-02 08:27:49 51°13.597 2°56.108 22.1849 4.395215 31.085954 -0.882377
2005-06-02 08:28:49 51°13.597 2°56.109 22.1946 4.394898 31.086498 -0.882377
2005-06-02 08:29:49 51°13.598 2°56.108 22.2104 4.394477 31.085701 -0.882377
2005-06-02 08:30:49 51°13.599 2°56.108 22.2245 4.394055 31.084905 -0.882377
2005-06-02 08:31:49 51°13.598 2°56.109 22.2364 4.393633 31.085123 -0.882377
2005-06-02 08:32:49 51°13.598 2°56.108 22.2493 4.393317 31.085667 -0.916087
2005-06-02 08:33:50 51°13.598 2°56.108 22.2459 4.392789 31.084544 -0.848668
2005-06-02 08:34:49 51°13.599 2°56.108 22.2454 4.392473 31.085089 -0.882377
2005-06-02 08:35:49 51°13.599 2°56.108 22.2642 4.392051 31.083785 -0.882377
2005-06-02 08:36:49 51°13.599 2°56.107 22.2784 4.391735 31.084837 -0.882377
2005-06-02 08:37:49 51°13.599 2°56.107 22.2774 4.391313 31.084548 -0.882377
2005-06-02 08:38:49 51°13.599 2°56.108 22.3141 4.390892 31.084259 -0.848668
2005-06-02 08:39:49 51°13.599 2°56.108 22.3123 4.39047 31.084478 -0.916087
2005-06-02 08:40:49 51°13.599 2°56.108 22.3261 4.390048 31.083682 -0.882377
2005-06-02 08:41:49 51°13.599 2°56.107 22.335 4.389626 31.083901 -0.916087
2005-06-02 08:42:49 51°13.599 2°56.108 22.3293 4.389204 31.083104 -0.882377
2005-06-02 08:43:49 51°13.599 2°56.108 22.3448 4.388994 31.084484 -0.882377
2005-06-02 08:44:49 51°13.599 2°56.108 22.3557 4.388466 31.082854 -0.882377
2005-06-02 08:45:49 51°13.599 2°56.108 22.357 4.38815 31.082891 -0.882377
2005-06-02 08:46:49 51°13.599 2°56.108 22.3435 4.387834 31.083437 -0.882377
2005-06-02 08:47:49 51°13.597 2°56.108 22.3691 4.387412 31.082641 -0.882377
2005-06-02 08:48:49 51°13.598 2°56.108 22.3884 4.387096 31.083187 -0.916087
2005-06-02 08:49:49 51°13.598 2°56.108 22.4013 4.386779 31.083733 -0.916087
2005-06-02 08:50:49 51°13.597 2°56.108 22.4223 4.386357 31.083445 -0.916087
2005-06-02 08:51:49 51°13.598 2°56.108 22.4324 4.386041 31.083992 -0.882377
2005-06-02 08:52:49 51°13.598 2°56.108 22.4162 4.385725 31.084031 -0.916087
2005-06-02 08:53:49 51°13.598 2°56.108 22.4378 4.385198 31.082908 -0.882377
2005-06-02 08:54:49 51°13.598 2°56.108 22.4559 4.384881 31.082438 -0.882377
2005-06-02 08:55:49 51°13.598 2°56.108 22.4621 4.384459 31.081642 -0.916087
2005-06-02 08:56:49 51°13.598 2°56.108 22.4801 4.384249 31.083024 -0.916087
2005-06-02 08:57:48 51°13.598 2°56.108 22.4872 4.384038 31.083389 -0.848668
2005-06-02 08:58:49 51°13.598 2°56.108 22.4936 4.383616 31.082593 -0.882377
2005-06-02 08:59:49 51°13.598 2°56.108 22.5018 4.383194 31.081287 -0.882377
2005-06-02 09:00:49 51°13.598 2°56.108 22.5116 4.382983 31.082161 -0.916087
2005-06-02 09:01:49 51°13.598 2°56.108 22.5153 4.382667 31.081691 -0.882377
2005-06-02 09:02:49 51°13.598 2°56.108 22.5334 4.382456 31.082057 -0.916087
2005-06-02 09:03:49 51°13.598 2°56.108 22.5409 4.382245 31.082422 -0.882377
2005-06-02 09:04:49 51°13.598 2°56.107 22.5435 4.38214 31.083623 -0.848668
2005-06-02 09:05:49 51°13.598 2°56.107 22.5623 4.381823 31.083153 -0.882377
2005-06-02 09:06:49 51°13.598 2°56.107 22.5767 4.381612 31.083009 -0.882377
2005-06-02 09:07:49 51°13.598 2°56.108 22.5742 4.381402 31.083375 -0.916087
2005-06-02 09:08:49 51°13.598 2°56.108 22.5789 4.381296 31.083558 -0.882377
2005-06-02 09:09:49 51°13.598 2°56.108 22.5872 4.381085 31.083414 -0.882377
2005-06-02 09:10:48 51°13.598 2°56.108 22.5913 4.38098 31.084107 -0.882377
2005-06-02 09:11:49 51°13.598 2°56.108 22.6075 4.380874 31.085308 -0.882377
2005-06-02 09:12:49 51°13.598 2°56.107 22.5911 4.380664 31.085165 -0.882377
2005-06-02 09:13:49 51°13.598 2°56.108 22.5959 4.380347 31.085714 -0.882377
2005-06-02 09:14:49 51°13.598 2°56.108 22.6172 4.380242 31.086916 -0.882377
2005-06-02 09:15:50 51°13.598 2°56.108 22.6284 4.37982 31.08663 -0.882377
2005-06-02 09:16:49 51°13.598 2°56.108 22.6461 4.379504 31.08667 -0.848668
2005-06-02 09:17:49 51°13.598 2°56.108 22.6541 4.379293 31.087546 -0.882377
2005-06-02 09:18:49 51°13.598 2°56.108 22.6631 4.378871 31.08777 -0.916087
2005-06-02 09:19:49 51°13.598 2°56.107 22.6775 4.378555 31.08781 -0.882377
2005-06-02 09:20:49 51°13.598 2°56.108 22.6992 4.378238 31.08836 -0.882377
2005-06-02 09:21:49 51°13.598 2°56.108 22.7284 4.377817 31.087565 -0.882377
2005-06-02 09:22:49 51°13.598 2°56.109 22.7086 4.377606 31.088442 -0.882377
2005-06-02 09:23:49 51°13.598 2°56.109 22.7382 4.377184 31.088156 -0.916087
2005-06-02 09:24:49 51°13.597 2°56.103 22.5875 4.376868 31.088707 -0.882377
2005-06-02 09:25:49 51°13.604 2°56.078 22.7641 4.376446 31.086381 -0.882377
2005-06-02 09:26:50 51°13.57 2°56.168 22.6485 4.37613 31.087442 -0.882377
2005-06-02 09:27:50 51°13.529 2°56.246 22.6896 4.375813 31.086973 -0.916087
2005-06-02 09:28:50 51°13.535 2°56.25 22.6059 4.375497 31.088545 -0.916087
2005-06-02 09:29:50 51°13.526 2°56.255 22.7689 4.375181 31.088586 -0.882377
2005-06-02 09:30:50 51°13.521 2°56.231 22.6515 4.374864 31.087607 -0.882377
2005-06-02 09:31:50 51°13.538 2°56.172 22.7771 4.374548 31.088159 -0.882377
2005-06-02 09:32:50 51°13.573 2°56.095 22.7563 4.374232 31.086158 -0.916087
2005-06-02 09:33:50 51°13.613 2°56.01 22.754 4.373915 31.0862 -0.882377
2005-06-02 09:34:50 51°13.653 2°55.921 22.7659 4.373704 31.086568 -0.916087
2005-06-02 09:35:50 51°13.692 2°55.836 22.777 4.373388 31.086609 -0.882377
2005-06-02 09:36:50 51°13.739 2°55.74 22.7194 4.373177 31.085956 -0.882377
2005-06-02 09:37:50 51°13.842 2°55.63 22.7399 4.372966 31.086835 -0.882377
2005-06-02 09:38:50 51°13.965 2°55.54 22.8026 4.372755 31.087203 -0.882377
2005-06-02 09:39:50 51°14.085 2°55.447 22.8433 4.372545 31.087571 -0.882377
2005-06-02 09:40:50 51°14.22 2°55.316 22.7184 4.372123 31.085755 -0.882377
2005-06-02 09:41:50 51°14.348 2°55.11 22.6961 4.372228 31.089657 -0.882377
2005-06-02 09:42:50 51°14.499 2°55.011 22.6714 4.371806 31.088861 -0.882377
2005-06-02 09:43:49 51°14.595 2°55.043 16.7161 4.39132 31.439289 -0.916087
2005-06-02 09:44:50 51°14.661 2°55.069 15.4285 3.803088 29.594253 -0.882377
2005-06-02 09:45:50 51°14.715 2°55.1 15.2948 3.777591 29.814151 -0.882377
2005-06-02 09:46:50 51°14.769 2°55.125 15.257 3.794139 30.07517 -0.882377
2005-06-02 09:47:49 51°14.864 2°55.121 15.2302 3.828288 30.445981 -0.882377
2005-06-02 09:48:50 51°14.997 2°54.974 15.1689 3.870342 30.845475 -0.882377
2005-06-02 09:49:50 51°15.149 2°54.762 15.1135 3.907024 31.233234 -0.916087
2005-06-02 09:50:50 51°15.312 2°54.539 15.0991 3.830608 30.565192 -0.916087
2005-06-02 09:51:50 51°15.483 2°54.325 15.1019 3.766003 30.010269 -0.916087
2005-06-02 09:52:49 51°15.655 2°54.111 15.1269 2.686466 20.663069 -0.848668
2005-06-02 09:53:50 51°15.831 2°53.901 15.1039 4.01191 32.191121 -0.882377
2005-06-02 09:54:50 51°16.021 2°53.722 14.9656 4.011172 32.234034 -0.882377
2005-06-02 09:55:50 51°16.213 2°53.544 14.921 3.991988 32.136996 -0.882377
2005-06-02 09:56:50 51°16.407 2°53.373 14.872 4.015602 32.399003 -0.882377
2005-06-02 09:57:50 51°16.61 2°53.226 14.8221 4.019609 32.483381 -0.882377
2005-06-02 09:58:50 51°16.809 2°53.075 14.8817 4.02994 32.586597 -0.916087
2005-06-02 09:59:50 51°17.007 2°52.922 14.8801 4.034367 32.586152 -0.882377
2005-06-02 10:00:50 51°17.161 2°52.684 14.8768 4.048178 32.720092 -0.882377
2005-06-02 10:01:50 51°17.295 2°52.416 14.8131 4.045859 32.71437 -0.916087
2005-06-02 10:02:50 51°17.437 2°52.157 14.7664 4.042486 32.744792 -0.882377
2005-06-02 10:03:50 51°17.591 2°51.912 14.7269 4.039219 32.751477 -0.916087
2005-06-02 10:04:50 51°17.744 2°51.666 14.6968 4.035108 32.752461 -0.882377
2005-06-02 10:05:50 51°17.894 2°51.413 14.7247 4.034054 32.75056 -0.916087
2005-06-02 10:06:50 51°18.047 2°51.166 14.6894 4.050394 32.878757 -0.882377
2005-06-02 10:07:50 51°18.199 2°50.918 14.6358 4.017398 32.632148 -0.882377
2005-06-02 10:08:50 51°18.35 2°50.673 14.5947 3.998423 32.493224 -0.882377
2005-06-02 10:09:50 51°18.501 2°50.424 14.427 3.970805 32.300409 -0.882377
2005-06-02 10:10:50 51°18.654 2°50.176 14.2261 3.937918 32.156323 -0.916087
2005-06-02 10:11:50 51°18.805 2°49.926 14.1681 3.937499 32.282507 -0.916087
2005-06-02 10:12:50 51°18.957 2°49.678 14.1655 3.936761 32.31786 -0.882377
2005-06-02 10:13:50 51°19.107 2°49.429 14.2328 3.946037 32.380342 -0.916087
2005-06-02 10:14:50 51°19.262 2°49.184 14.3105 3.963324 32.493588 -0.916087
2005-06-02 10:15:50 51°19.42 2°48.943 14.4402 3.992312 32.65824 -0.882377
2005-06-02 10:16:50 51°19.575 2°48.699 14.3341 4.021196 32.854729 -0.882377
2005-06-02 10:17:50 51°19.729 2°48.457 14.1355 4.028788 33.077678 -0.916087
2005-06-02 10:18:50 51°19.885 2°48.216 14.064 4.009182 33.01402 -0.916087
2005-06-02 10:19:50 51°20.04 2°47.974 14.024 4.003806 33.020203 -0.949796
2005-06-02 10:20:50 51°20.192 2°47.727 14.0023 3.996849 32.986959 -0.916087
2005-06-02 10:21:49 51°20.345 2°47.482 14.0016 3.991052 32.949295 -0.916087
2005-06-02 10:22:50 51°20.5 2°47.235 13.9979 3.991368 32.950244 -0.882377
2005-06-02 10:23:50 51°20.655 2°46.991 14.0252 3.997271 33.000668 -0.882377
2005-06-02 10:24:50 51°20.822 2°46.772 14.046 4.018355 33.176438 -0.916087
2005-06-02 10:25:50 51°21 2°46.573 14.0359 4.024891 33.230711 -0.882377
2005-06-02 10:26:50 51°21.189 2°46.391 14.0576 4.030794 33.279814 -0.882377
2005-06-02 10:27:50 51°21.386 2°46.225 14.0048 4.037858 33.357467 -0.882377
2005-06-02 10:28:50 51°21.582 2°46.077 13.9021 4.030373 33.33812 -0.882377
2005-06-02 10:29:50 51°21.767 2°45.969 13.8715 4.0192 33.297254 -0.916087
2005-06-02 10:30:50 51°21.899 2°45.913 13.8398 4.008026 33.232405 -0.916087
2005-06-02 10:31:50 51°22.008 2°45.887 13.8018 4.001912 33.203022 -0.916087
2005-06-02 10:32:50 51°22.095 2°45.874 13.7916 3.997063 33.175375 -0.882377
2005-06-02 10:33:50 51°22.242 2°45.78 13.7816 3.996009 33.17954 -0.916087
2005-06-02 10:34:50 51°22.42 2°45.574 13.7794 3.996747 33.189029 -0.882377
2005-06-02 10:35:50 51°22.565 2°45.316 13.7711 3.999804 33.221333 -0.916087
2005-06-02 10:36:50 51°22.705 2°45.051 13.7994 4.004126 33.25606 -0.882377
2005-06-02 10:37:50 51°22.848 2°44.79 13.7876 4.006762 33.277152 -0.882377
2005-06-02 10:38:50 51°22.994 2°44.534 13.7657 4.010135 33.316402 -0.882377
2005-06-02 10:39:50 51°23.142 2°44.28 13.7528 4.013614 33.359323 -0.882377
2005-06-02 10:40:50 51°23.29 2°44.029 13.7176 4.015828 33.402575 -0.882377
2005-06-02 10:41:50 51°23.438 2°43.775 13.6798 4.016883 33.438472 -0.916087
2005-06-02 10:42:50 51°23.587 2°43.523 13.6188 4.013721 33.457382 -0.882377
2005-06-02 10:43:50 51°23.71 2°43.247 13.5854 4.010981 33.476249 -0.916087
2005-06-02 10:44:50 51°23.818 2°42.959 13.5542 4.010665 33.494181 -0.882377
2005-06-02 10:45:50 51°23.924 2°42.665 13.5387 4.012563 33.532104 -0.882377
2005-06-02 10:46:50 51°24.025 2°42.367 13.5525 4.013617 33.556798 -0.882377
2005-06-02 10:47:50 51°24.124 2°42.07 13.5562 4.016358 33.564114 -0.916087
2005-06-02 10:48:50 51°24.223 2°41.768 13.5445 4.01678 33.576834 -0.916087
2005-06-02 10:49:50 51°24.325 2°41.471 13.5511 4.018256 33.59466 -0.916087
2005-06-02 10:50:50 51°24.422 2°41.166 13.5481 4.020153 33.61304 -0.916087
2005-06-02 10:51:50 51°24.512 2°40.861 13.5367 4.022683 33.639357 -0.916087
2005-06-02 10:52:50 51°24.594 2°40.553 13.5015 4.023949 33.670834 -0.882377
2005-06-02 10:53:50 51°24.675 2°40.238 13.4572 4.023317 33.698215 -0.882377
2005-06-02 10:54:50 51°24.751 2°39.924 13.4306 4.022895 33.725584 -0.882377
2005-06-02 10:55:50 51°24.823 2°39.611 13.4195 4.023633 33.746124 -0.916087
2005-06-02 10:56:50 51°24.888 2°39.291 13.3859 4.02395 33.770928 -0.882377
2005-06-02 10:57:50 51°24.952 2°38.972 13.3516 4.025005 33.801315 -0.916087
2005-06-02 10:58:50 51°25.019 2°38.65 13.339 4.025532 33.830225 -0.916087
2005-06-02 10:59:50 51°25.088 2°38.327 13.3239 4.026376 33.855969 -0.882377
2005-06-02 11:00:50 51°25.159 2°38.011 13.269 4.031015 33.929081 -0.916087
2005-06-02 11:01:50 51°25.224 2°37.695 13.1852 4.034916 34.010595 -0.916087
2005-06-02 11:02:50 51°25.291 2°37.383 13.1635 4.031122 34.039236 -0.882377
2005-06-02 11:03:50 51°25.355 2°37.108 13.1473 4.030806 34.042495 -0.916087
2005-06-02 11:04:50 51°25.416 2°36.833 13.1259 4.02933 34.044535 -0.882377
2005-06-02 11:05:50 51°25.478 2°36.557 13.0741 4.029119 34.069631 -0.916087
2005-06-02 11:06:50 51°25.529 2°36.309 13.0088 4.02659 34.101417 -0.848668
2005-06-02 11:07:50 51°25.518 2°36.232 12.9879 4.022796 34.122743 -0.882377
2005-06-02 11:08:50 51°25.495 2°36.256 12.9943 4.022901 34.125139 -0.882377
2005-06-02 11:09:50 51°25.5 2°36.301 12.9936 4.023534 34.125537 -0.916087
2005-06-02 11:10:50 51°25.519 2°36.34 12.9854 4.023112 34.126436 -0.882377
2005-06-02 11:11:50 51°25.518 2°36.387 12.976 4.019633 34.099784 -0.916087
2005-06-02 11:12:50 51°25.491 2°36.374 12.9836 4.017314 34.085505 -0.882377
2005-06-02 11:13:50 51°25.504 2°36.347 12.9758 4.021426 34.126542 -0.882377
2005-06-02 11:14:50 51°25.528 2°36.353 12.98 4.018895 34.102577 -0.916087
2005-06-02 11:15:50 51°25.554 2°36.374 12.9758 4.018263 34.095887 -0.916087
2005-06-02 11:16:50 51°25.593 2°36.367 12.9815 4.019422 34.102678 -0.882377
2005-06-02 11:17:50 51°25.628 2°36.367 12.9848 4.019001 34.095192 -0.916087
2005-06-02 11:18:50 51°25.661 2°36.354 12.9762 4.017209 34.091492 -0.882377
2005-06-02 11:19:50 51°25.707 2°36.284 12.9696 4.016682 34.085102 -0.882377
2005-06-02 11:20:50 51°25.744 2°36.26 12.9783 4.015627 34.075117 -0.916087
2005-06-02 11:21:50 51°25.767 2°36.276 12.9695 4.017314 34.088997 -0.882377
2005-06-02 11:22:50 51°25.791 2°36.303 12.9744 4.018157 34.094889 -0.916087
2005-06-02 11:23:50 51°25.811 2°36.334 12.9735 4.015733 34.074021 -0.916087
2005-06-02 11:24:50 51°25.842 2°36.349 12.9762 4.015944 34.078113 -0.916087
2005-06-02 11:25:50 51°25.857 2°36.231 12.971 4.014468 34.066927 -0.916087
2005-06-02 11:26:50 51°25.767 2°36.145 12.9739 4.013835 34.057447 -0.882377
2005-06-02 11:27:50 51°25.693 2°36.112 12.9658 4.0151 34.063145 -0.916087
2005-06-02 11:28:50 51°25.663 2°36.109 12.9548 4.01489 34.077906 -0.916087
2005-06-02 11:29:50 51°25.654 2°36.124 12.9611 4.014784 34.0804 -0.916087
2005-06-02 11:30:50 51°25.648 2°36.142 12.9595 4.010357 34.038455 -0.882377
2005-06-02 11:31:50 51°25.633 2°36.146 12.9742 4.013519 34.064923 -0.882377
2005-06-02 11:32:50 51°25.612 2°36.139 12.9592 4.014573 34.07491 -0.882377
2005-06-02 11:33:50 51°25.589 2°36.133 12.9637 4.011832 34.051737 -0.882377
2005-06-02 11:34:50 51°25.573 2°36.134 12.9543 4.008775 34.026964 -0.882377
2005-06-02 11:35:50 51°25.556 2°36.143 12.9576 4.009092 34.030658 -0.882377
2005-06-02 11:36:50 51°25.522 2°36.131 12.9523 4.009619 34.032162 -0.882377
2005-06-02 11:37:50 51°25.535 2°36.079 12.9562 4.012254 34.059922 -0.916087
2005-06-02 11:38:50 51°25.563 2°36.083 12.9518 4.010673 34.040753 -0.916087
2005-06-02 11:39:50 51°25.589 2°36.098 12.9484 4.01004 34.043834 -0.882377
2005-06-02 11:40:50 51°25.613 2°36.124 12.9495 4.010462 34.053417 -0.916087
2005-06-02 11:41:50 51°25.642 2°36.141 12.9486 4.010146 34.042041 -0.882377
2005-06-02 11:42:50 51°25.674 2°36.081 12.942 4.006562 34.008783 -0.916087
2005-06-02 11:43:50 51°25.667 2°36.01 12.9465 4.009197 34.043524 -0.916087
2005-06-02 11:44:50 51°25.656 2°35.984 12.951 4.011306 34.055123 -0.916087
2005-06-02 11:45:50 51°25.615 2°35.992 12.9476 4.010462 34.044339 -0.916087
2005-06-02 11:46:50 51°25.572 2°36.061 12.9405 4.015839 34.098778 -0.882377
2005-06-02 11:47:50 51°25.553 2°36.119 12.9406 4.00224 33.978293 -0.916087
2005-06-02 11:48:50 51°25.526 2°36.173 12.9489 4.010251 34.049324 -0.882377
2005-06-02 11:49:50 51°25.5 2°36.225 12.9441 4.007932 34.02037 -0.882377
2005-06-02 11:50:50 51°25.495 2°36.291 12.9434 4.003083 33.986284 -0.882377
2005-06-02 11:51:50 51°25.508 2°36.323 12.9381 4.007827 34.024953 -0.882377
2005-06-02 11:52:50 51°25.521 2°36.354 12.9487 4.022691 34.165831 -0.916087
2005-06-02 11:53:50 51°25.536 2°36.386 12.9463 4.02248 34.163131 -0.882377
2005-06-02 11:54:50 51°25.55 2°36.416 12.9458 4.023323 34.16412 -0.882377
2005-06-02 11:55:50 51°25.563 2°36.447 12.9528 4.02248 34.165233 -0.882377
2005-06-02 11:56:50 51°25.577 2°36.48 12.9514 4.022691 34.161627 -0.916087
2005-06-02 11:57:50 51°25.558 2°36.521 12.9725 4.022796 34.161926 -0.882377
2005-06-02 11:58:50 51°25.514 2°36.509 12.9626 4.024377 34.163605 -0.882377
2005-06-02 11:59:50 51°25.484 2°36.471 12.9495 4.020899 34.141138 -0.916087
2005-06-02 12:00:50 51°25.48 2°36.412 12.9563 4.022902 34.160823 -0.882377
2005-06-02 12:01:50 51°25.5 2°36.376 12.9591 4.023323 34.160618 -0.916087
2005-06-02 12:02:50 51°25.514 2°36.338 12.9516 4.02364 34.166417 -0.882377
2005-06-02 12:03:50 51°25.522 2°36.333 12.9543 4.023745 34.169518 -0.882377
2005-06-02 12:04:50 51°25.536 2°36.341 12.9473 4.023956 34.171517 -0.882377
2005-06-02 12:05:50 51°25.548 2°36.34 12.9467 4.023534 34.171724 -0.916087
2005-06-02 12:06:50 51°25.539 2°36.323 12.9642 4.023851 34.17262 -0.916087
2005-06-02 12:07:50 51°25.518 2°36.316 12.9769 4.025221 34.168795 -0.882377
2005-06-02 12:08:50 51°25.507 2°36.325 12.9822 4.026591 34.171976 -0.916087
2005-06-02 12:09:50 51°25.512 2°36.348 12.9858 4.008037 33.990704 -0.916087
2005-06-02 12:10:50 51°25.523 2°36.377 12.9693 4.008986 34.010134 -0.882377
2005-06-02 12:11:50 51°25.524 2°36.411 12.9586 4.013203 34.059134 -0.882377
2005-06-02 12:12:50 51°25.46 2°36.414 12.9644 4.016576 34.090391 -0.916087
2005-06-02 12:13:50 51°25.334 2°36.547 12.9485 4.017841 34.105871 -0.916087
2005-06-02 12:14:50 51°25.211 2°36.829 12.9687 4.015417 34.079406 -0.882377
2005-06-02 12:15:50 51°25.086 2°37.119 13.0591 4.020477 34.11336 -0.916087
2005-06-02 12:16:50 51°24.967 2°37.416 13.1242 4.025008 34.055842 -0.882377
2005-06-02 12:17:50 51°24.858 2°37.725 13.2578 4.030173 34.02267 -0.916087
2005-06-02 12:18:50 51°24.753 2°38.031 13.2904 4.033124 33.986136 -0.882377
2005-06-02 12:19:50 51°24.625 2°38.32 13.3068 4.029117 33.924335 -0.882377
2005-06-02 12:20:50 51°24.496 2°38.606 13.2967 4.019629 33.811166 -0.882377
2005-06-02 12:21:50 51°24.37 2°38.895 13.3357 4.029433 33.905282 -0.882377
2005-06-02 12:22:50 51°24.244 2°39.191 13.3385 4.040608 33.983369 -0.882377
2005-06-02 12:23:50 51°24.119 2°39.492 13.3382 4.043981 34.011597 -0.916087
2005-06-02 12:24:50 51°23.998 2°39.787 13.3774 4.036707 33.974986 -0.882377
2005-06-02 12:25:50 51°23.889 2°40.092 13.4329 4.03892 33.911867 -0.916087
2005-06-02 12:26:50 51°23.784 2°40.401 13.4598 4.032383 33.810269 -0.882377
2005-06-02 12:27:50 51°23.677 2°40.71 13.4734 4.018994 33.667331 -0.916087
2005-06-02 12:28:50 51°23.567 2°41.019 13.5085 4.028693 33.74575 -0.916087
2005-06-02 12:29:50 51°23.464 2°41.337 13.538 4.028904 33.732065 -0.949796
2005-06-02 12:30:50 51°23.391 2°41.677 13.5688 4.032909 33.732764 -0.882377
2005-06-02 12:31:50 51°23.326 2°42.018 13.6753 4.034807 33.735529 -0.882377
2005-06-02 12:32:50 51°23.272 2°42.274 13.7134 4.040814 33.675024 -0.916087
2005-06-02 12:33:50 51°23.221 2°42.517 13.703 4.041236 33.674219 -0.916087
2005-06-02 12:34:50 51°23.161 2°42.75 13.7247 4.021311 33.484968 -0.882377
2005-06-02 12:35:50 51°23.078 2°42.99 13.7776 4.02247 33.466228 -0.882377
2005-06-02 12:36:50 51°22.969 2°43.238 13.8386 4.040391 33.577529 -0.916087
2005-06-02 12:37:50 51°22.879 2°43.378 13.8953 4.043131 33.568734 -0.882377
2005-06-02 12:38:50 51°22.763 2°43.426 14.0001 4.032694 33.426673 -0.916087
2005-06-02 12:39:50 51°22.63 2°43.508 14.2439 0.135634 0.871335 -0.916087
2005-06-02 12:40:50 51°22.529 2°43.684 14.3449 0.113169 0.721438 -0.916087
2005-06-02 12:41:50 51°22.498 2°43.852 14.4703 0.103394 0.656186 -0.916087
2005-06-02 12:42:50 51°22.503 2°43.987 14.5786 0.097052 0.613836 -0.916087
2005-06-02 12:43:50 51°22.492 2°44.126 14.7058 0.093621 0.590707 -0.882377
2005-06-02 12:44:50 51°22.424 2°44.312 14.8259 0.090293 0.568272 -0.882377
2005-06-02 12:45:50 51°22.315 2°44.594 14.9544 0.087382 0.548627 -0.916087
2005-06-02 12:46:50 51°22.183 2°44.87 15.0755 0.084991 0.53249 -0.882377
2005-06-02 12:47:50 51°22.032 2°45.12 15.1826 0.082912 0.518457 -0.916087
2005-06-02 12:48:50 51°21.87 2°45.357 15.2924 0.081665 0.509849 -0.882377
2005-06-02 12:49:50 51°21.711 2°45.596 15.4026 0.080313 0.500411 -0.916087
2005-06-02 12:50:50 51°21.554 2°45.843 15.5094 0.07917 0.492688 -0.882377
2005-06-02 12:51:50 51°21.395 2°46.087 15.6159 0.07813 0.48544 -0.916087
2005-06-02 12:52:50 51°21.237 2°46.333 15.7224 0.07709 0.478195 -0.916087
2005-06-02 12:53:49 51°21.078 2°46.572 15.8299 0.076363 0.473094 -0.916087
2005-06-02 12:54:50 51°20.922 2°46.812 15.9329 0.075635 0.467961 -0.882377
2005-06-02 12:55:50 51°20.76 2°47.038 16.0498 0.074803 0.462165 -0.882377
2005-06-02 12:56:50 51°20.598 2°47.261 16.1482 0.073972 0.456332 -0.882377
2005-06-02 12:57:50 51°20.433 2°47.486 16.2206 0.073556 0.453294 -0.882377
2005-06-02 12:58:50 51°20.267 2°47.711 16.3564 0.072724 0.447564 -0.882377
2005-06-02 12:59:50 51°20.138 2°47.99 16.4239 0.072413 0.445238 -0.882377
2005-06-02 13:00:50 51°20.004 2°48.273 16.532 0.071685 0.440349 -0.882377
2005-06-02 13:01:50 51°19.874 2°48.551 16.5954 0.071373 0.437967 -0.916087
2005-06-02 13:02:50 51°19.746 2°48.822 16.7015 0.070853 0.434318 -0.882377
2005-06-02 13:03:50 51°19.618 2°49.089 16.7587 0.070438 0.431304 -0.882377
2005-06-02 13:04:50 51°19.487 2°49.357 16.8656 0.070022 0.428264 -0.882377
2005-06-02 13:05:50 51°19.355 2°49.625 16.9557 0.069606 0.425215 -0.882377
2005-06-02 13:06:50 51°19.223 2°49.891 17.0118 0.06919 0.422283 -0.882377
2005-06-02 13:07:50 51°19.091 2°50.159 17.0927 0.068878 0.419958 -0.916087
2005-06-02 13:08:50 51°18.956 2°50.429 17.1812 0.068567 0.417569 -0.916087
2005-06-02 13:09:50 51°18.815 2°50.702 17.2563 0.068255 0.415292 -0.916087
2005-06-02 13:10:50 51°18.638 2°50.91 17.3221 0.067839 0.412182 -0.916087
2005-06-02 13:11:50 51°18.425 2°51.014 17.4239 0.067527 0.410037 -0.882377
2005-06-02 13:12:50 51°18.21 2°51.113 17.4856 0.067215 0.407736 -0.882377
2005-06-02 13:13:50 51°18.002 2°51.215 17.6031 0.066903 0.405342 -0.882377
2005-06-02 13:14:50 51°17.793 2°51.318 17.6617 0.066696 0.403903 -0.882377
2005-06-02 13:15:50 51°17.586 2°51.419 17.7334 0.066384 0.401245 -0.882377
2005-06-02 13:16:50 51°17.391 2°51.521 17.8238 0.06628 0.40058 -0.882377
2005-06-02 13:17:50 51°17.309 2°51.613 17.8923 0.065864 0.39789 -0.882377
2005-06-02 13:18:50 51°17.284 2°51.639 17.9649 0.065656 0.396342 -0.882377
2005-06-02 13:19:50 51°17.265 2°51.645 15.1704 0.065448 0.394767 -0.882377
2005-06-02 13:20:50 51°17.179 2°51.691 14.9087 4.162039 33.506715 2.320016
2005-06-02 13:21:50 51°16.997 2°51.847 14.9554 4.097095 33.079048 2.690819
2005-06-02 13:22:50 51°16.806 2°52.01 15.0393 3.952562 31.762657 2.353725
2005-06-02 13:23:50 51°16.611 2°52.166 15.0347 3.987454 32.031476 2.724529
2005-06-02 13:24:50 51°16.412 2°52.315 14.9683 3.934642 31.585231 2.555982
2005-06-02 13:25:50 51°16.212 2°52.465 15.0465 3.046584 23.818646 2.320016
2005-06-02 13:26:50 51°16.014 2°52.612 15.3188 3.729646 29.709497 2.522272
2005-06-02 13:27:50 51°15.814 2°52.755 15.3677 3.097324 24.033824 3.600973
2005-06-02 13:28:50 51°15.633 2°52.944 15.249 4.051229 32.384675 3.80323
2005-06-02 13:29:50 51°15.453 2°53.139 15.1952 4.012014 32.118086 3.971777
2005-06-02 13:30:50 51°15.271 2°53.329 15.3046 4.017496 32.159629 3.938067
2005-06-02 13:31:50 51°15.096 2°53.532 15.406 4.011802 32.04566 3.904358
2005-06-02 13:32:50 51°14.929 2°53.749 15.5401 4.027192 32.087802 3.600973
2005-06-02 13:33:50 51°14.769 2°53.982 15.3948 3.958564 31.412656 3.331298
2005-06-02 13:34:50 51°14.643 2°54.255 15.6775 3.946232 31.333387 3.904358
2005-06-02 13:35:50 51°14.561 2°54.548 15.7508 3.978063 31.427723 3.600973
2005-06-02 13:36:50 51°14.462 2°54.804 15.2578 4.007581 31.749416 4.072905
2005-06-02 13:37:50 51°14.366 2°55.057 15.4371 3.949818 31.520254 5.050477
2005-06-02 13:38:50 51°14.282 2°55.223 15.3716 3.748084 29.633499 5.522409
2005-06-02 13:39:50 51°14.214 2°55.324 15.3328 3.757885 29.758119 5.657247
2005-06-02 13:40:50 51°14.122 2°55.415 15.3438 3.721423 29.46491 5.758375
2005-06-02 13:41:50 51°14.016 2°55.498 15.3976 3.675162 29.053354 6.129178
2005-06-02 13:42:50 51°13.93 2°55.558 15.4251 3.656616 28.846096 6.230306
2005-06-02 13:43:50 51°13.866 2°55.605 15.3529 3.543771 27.853734 6.5674
2005-06-02 13:44:50 51°13.814 2°55.645 15.298 3.598348 28.3828 7.073042
2005-06-02 13:45:50 51°13.759 2°55.715 15.4154 3.659041 28.94165 7.207879
2005-06-02 13:46:50 51°13.702 2°55.823 15.5306 3.555149 27.888802 6.061759
2005-06-02 13:47:50 51°13.66 2°55.929 15.578 3.502682 27.409529 5.758375
2005-06-02 13:48:50 51°13.627 2°56.013 15.4757 3.473396 27.144911 5.589828
2005-06-02 13:49:50 51°13.604 2°56.087 15.5418 3.523648 27.641147 5.657247